sensor_id;sensor_type;location;lat;lon;timestamp;temperature;humidity
42617;DHT22;28250;52.320;0.360;2023-11-21T00:02:06;9.90;99.90
42617;DHT22;28250;52.320;0.360;2023-11-21T00:04:32;9.90;99.90
42617;DHT22;28250;52.320;0.360;2023-11-21T00:06:58;9.90;99.90
42617;DHT22;28250;52.320;0.360;2023-11-21T00:09:24;9.90;99.90
42617;DHT22;28250;52.320;0.360;2023-11-21T00:11:50;9.90;99.90
42617;DHT22;28250;52.320;0.360;2023-11-21T00:14:16;9.90;99.90
42617;DHT22;28250;52.320;0.360;2023-11-21T00:16:43;9.90;99.90
42617;DHT22;28250;52.320;0.360;2023-11-21T00:19:09;9.90;99.90
42617;DHT22;28250;52.320;0.360;2023-11-21T00:21:35;9.80;99.90
42617;DHT22;28250;52.320;0.360;2023-11-21T00:24:01;9.80;99.90
42617;DHT22;28250;52.320;0.360;2023-11-21T00:26:27;9.80;99.90
42617;DHT22;28250;52.320;0.360;2023-11-21T00:29:00;9.90;99.90
42617;DHT22;28250;52.320;0.360;2023-11-21T00:31:27;9.80;99.90
42617;DHT22;28250;52.320;0.360;2023-11-21T00:33:53;9.80;99.90
42617;DHT22;28250;52.320;0.360;2023-11-21T00:36:21;9.90;99.90
42617;DHT22;28250;52.320;0.360;2023-11-21T00:38:47;9.90;99.90
42617;DHT22;28250;52.320;0.360;2023-11-21T00:41:14;9.90;99.90
42617;DHT22;28250;52.320;0.360;2023-11-21T00:43:40;9.90;99.90
42617;DHT22;28250;52.320;0.360;2023-11-21T00:46:06;9.90;99.90
42617;DHT22;28250;52.320;0.360;2023-11-21T00:48:35;9.90;99.90
42617;DHT22;28250;52.320;0.360;2023-11-21T00:51:01;9.90;99.90
42617;DHT22;28250;52.320;0.360;2023-11-21T00:53:27;9.90;99.90
42617;DHT22;28250;52.320;0.360;2023-11-21T00:55:53;9.90;99.90
42617;DHT22;28250;52.320;0.360;2023-11-21T00:58:24;9.90;99.90
42617;DHT22;28250;52.320;0.360;2023-11-21T01:00:50;9.90;99.90
42617;DHT22;28250;52.320;0.360;2023-11-21T01:03:16;9.90;99.90
42617;DHT22;28250;52.320;0.360;2023-11-21T01:05:42;10.00;99.90
42617;DHT22;28250;52.320;0.360;2023-11-21T01:08:09;9.90;99.90
42617;DHT22;28250;52.320;0.360;2023-11-21T01:10:37;9.90;99.90
42617;DHT22;28250;52.320;0.360;2023-11-21T01:13:04;9.90;99.90
42617;DHT22;28250;52.320;0.360;2023-11-21T01:15:30;9.90;99.90
42617;DHT22;28250;52.320;0.360;2023-11-21T01:17:56;10.00;99.90
42617;DHT22;28250;52.320;0.360;2023-11-21T01:20:22;9.90;99.90
42617;DHT22;28250;52.320;0.360;2023-11-21T01:22:48;9.90;99.90
42617;DHT22;28250;52.320;0.360;2023-11-21T01:25:15;9.90;99.90
42617;DHT22;28250;52.320;0.360;2023-11-21T01:27:42;9.90;99.90
42617;DHT22;28250;52.320;0.360;2023-11-21T01:30:09;9.90;99.90
42617;DHT22;28250;52.320;0.360;2023-11-21T01:32:38;9.90;99.90
42617;DHT22;28250;52.320;0.360;2023-11-21T01:35:05;9.90;99.90
42617;DHT22;28250;52.320;0.360;2023-11-21T01:37:32;9.90;99.90
42617;DHT22;28250;52.320;0.360;2023-11-21T01:39:59;9.90;99.90
42617;DHT22;28250;52.320;0.360;2023-11-21T01:42:27;10.00;99.90
42617;DHT22;28250;52.320;0.360;2023-11-21T01:44:54;9.90;99.90
42617;DHT22;28250;52.320;0.360;2023-11-21T01:47:20;10.00;99.90
42617;DHT22;28250;52.320;0.360;2023-11-21T01:49:47;10.00;99.90
42617;DHT22;28250;52.320;0.360;2023-11-21T01:52:14;10.00;99.90
42617;DHT22;28250;52.320;0.360;2023-11-21T01:54:41;10.00;99.90
42617;DHT22;28250;52.320;0.360;2023-11-21T01:57:08;10.00;99.90
42617;DHT22;28250;52.320;0.360;2023-11-21T01:59:35;10.00;99.90
42617;DHT22;28250;52.320;0.360;2023-11-21T02:02:04;10.00;99.90
42617;DHT22;28250;52.320;0.360;2023-11-21T02:04:32;10.00;99.90
42617;DHT22;28250;52.320;0.360;2023-11-21T02:06:59;10.00;99.90
42617;DHT22;28250;52.320;0.360;2023-11-21T02:09:27;10.00;99.90
42617;DHT22;28250;52.320;0.360;2023-11-21T02:11:55;9.90;99.90
42617;DHT22;28250;52.320;0.360;2023-11-21T02:14:21;10.00;99.90
42617;DHT22;28250;52.320;0.360;2023-11-21T02:16:51;9.90;99.90
42617;DHT22;28250;52.320;0.360;2023-11-21T02:19:18;9.90;99.90
42617;DHT22;28250;52.320;0.360;2023-11-21T02:21:52;9.90;99.90
42617;DHT22;28250;52.320;0.360;2023-11-21T02:24:19;9.90;99.90
42617;DHT22;28250;52.320;0.360;2023-11-21T02:26:48;9.90;99.90
42617;DHT22;28250;52.320;0.360;2023-11-21T02:29:19;9.90;99.90
42617;DHT22;28250;52.320;0.360;2023-11-21T02:31:50;9.90;99.90
42617;DHT22;28250;52.320;0.360;2023-11-21T02:34:18;9.90;99.90
42617;DHT22;28250;52.320;0.360;2023-11-21T02:36:44;9.80;99.90
42617;DHT22;28250;52.320;0.360;2023-11-21T02:39:11;9.80;99.90
42617;DHT22;28250;52.320;0.360;2023-11-21T02:41:37;9.80;99.90
42617;DHT22;28250;52.320;0.360;2023-11-21T02:44:05;9.80;99.90
42617;DHT22;28250;52.320;0.360;2023-11-21T02:46:32;9.80;99.90
42617;DHT22;28250;52.320;0.360;2023-11-21T02:49:01;9.80;99.90
42617;DHT22;28250;52.320;0.360;2023-11-21T02:51:28;9.80;99.90
42617;DHT22;28250;52.320;0.360;2023-11-21T02:53:54;9.80;99.90
42617;DHT22;28250;52.320;0.360;2023-11-21T02:56:25;9.70;99.90
42617;DHT22;28250;52.320;0.360;2023-11-21T02:58:52;9.80;99.90
42617;DHT22;28250;52.320;0.360;2023-11-21T03:01:21;9.70;99.90
42617;DHT22;28250;52.320;0.360;2023-11-21T03:03:46;9.70;99.90
42617;DHT22;28250;52.320;0.360;2023-11-21T03:06:19;9.70;99.90
42617;DHT22;28250;52.320;0.360;2023-11-21T03:08:46;9.70;99.90
42617;DHT22;28250;52.320;0.360;2023-11-21T03:11:13;9.60;99.90
42617;DHT22;28250;52.320;0.360;2023-11-21T03:13:40;9.60;99.90
42617;DHT22;28250;52.320;0.360;2023-11-21T03:16:08;9.60;99.90
42617;DHT22;28250;52.320;0.360;2023-11-21T03:18:36;9.60;99.90
42617;DHT22;28250;52.320;0.360;2023-11-21T03:21:03;9.60;99.90
42617;DHT22;28250;52.320;0.360;2023-11-21T03:23:30;9.60;99.90
42617;DHT22;28250;52.320;0.360;2023-11-21T03:25:56;9.50;99.90
42617;DHT22;28250;52.320;0.360;2023-11-21T03:28:30;9.50;99.90
42617;DHT22;28250;52.320;0.360;2023-11-21T03:30:57;9.50;99.90
42617;DHT22;28250;52.320;0.360;2023-11-21T03:33:23;9.50;99.90
42617;DHT22;28250;52.320;0.360;2023-11-21T03:35:50;9.50;99.90
42617;DHT22;28250;52.320;0.360;2023-11-21T03:38:18;9.50;99.90
42617;DHT22;28250;52.320;0.360;2023-11-21T03:40:45;9.50;99.90
42617;DHT22;28250;52.320;0.360;2023-11-21T03:43:11;9.50;99.90
42617;DHT22;28250;52.320;0.360;2023-11-21T03:45:37;9.50;99.90
42617;DHT22;28250;52.320;0.360;2023-11-21T03:48:06;9.50;99.90
42617;DHT22;28250;52.320;0.360;2023-11-21T03:50:32;9.50;99.90
42617;DHT22;28250;52.320;0.360;2023-11-21T03:52:59;9.50;99.90
42617;DHT22;28250;52.320;0.360;2023-11-21T03:55:25;9.50;99.90
42617;DHT22;28250;52.320;0.360;2023-11-21T03:57:51;9.40;99.90
42617;DHT22;28250;52.320;0.360;2023-11-21T04:00:19;9.40;99.90
42617;DHT22;28250;52.320;0.360;2023-11-21T04:02:48;9.40;99.90
42617;DHT22;28250;52.320;0.360;2023-11-21T04:05:14;9.40;99.90
42617;DHT22;28250;52.320;0.360;2023-11-21T04:07:40;9.40;99.90
42617;DHT22;28250;52.320;0.360;2023-11-21T04:10:07;9.40;99.90
42617;DHT22;28250;52.320;0.360;2023-11-21T04:12:38;9.40;99.90
42617;DHT22;28250;52.320;0.360;2023-11-21T04:15:05;9.30;99.90
42617;DHT22;28250;52.320;0.360;2023-11-21T04:17:32;9.30;99.90
42617;DHT22;28250;52.320;0.360;2023-11-21T04:19:57;9.30;99.90
42617;DHT22;28250;52.320;0.360;2023-11-21T04:22:23;9.30;99.90
42617;DHT22;28250;52.320;0.360;2023-11-21T04:24:49;9.30;99.90
42617;DHT22;28250;52.320;0.360;2023-11-21T04:27:15;9.30;99.90
42617;DHT22;28250;52.320;0.360;2023-11-21T04:29:44;9.30;99.90
42617;DHT22;28250;52.320;0.360;2023-11-21T04:32:10;9.30;99.90
42617;DHT22;28250;52.320;0.360;2023-11-21T04:34:36;9.30;99.90
42617;DHT22;28250;52.320;0.360;2023-11-21T04:37:02;9.30;99.90
42617;DHT22;28250;52.320;0.360;2023-11-21T04:39:28;9.30;99.90
42617;DHT22;28250;52.320;0.360;2023-11-21T04:41:54;9.20;99.90
42617;DHT22;28250;52.320;0.360;2023-11-21T04:44:20;9.20;99.90
42617;DHT22;28250;52.320;0.360;2023-11-21T04:46:46;9.20;99.90
42617;DHT22;28250;52.320;0.360;2023-11-21T04:49:12;9.20;99.90
42617;DHT22;28250;52.320;0.360;2023-11-21T04:51:38;9.20;99.90
42617;DHT22;28250;52.320;0.360;2023-11-21T04:54:04;9.20;99.90
42617;DHT22;28250;52.320;0.360;2023-11-21T04:56:31;9.10;99.90
42617;DHT22;28250;52.320;0.360;2023-11-21T04:58:57;9.10;99.90
42617;DHT22;28250;52.320;0.360;2023-11-21T05:01:23;9.10;99.90
42617;DHT22;28250;52.320;0.360;2023-11-21T05:03:49;9.00;99.90
42617;DHT22;28250;52.320;0.360;2023-11-21T05:06:15;9.00;99.90
42617;DHT22;28250;52.320;0.360;2023-11-21T05:08:41;9.00;99.90
42617;DHT22;28250;52.320;0.360;2023-11-21T05:11:08;9.00;99.90
42617;DHT22;28250;52.320;0.360;2023-11-21T05:13:36;9.00;99.90
42617;DHT22;28250;52.320;0.360;2023-11-21T05:16:03;8.90;99.90
42617;DHT22;28250;52.320;0.360;2023-11-21T05:18:32;8.90;99.90
42617;DHT22;28250;52.320;0.360;2023-11-21T05:21:00;8.90;99.90
42617;DHT22;28250;52.320;0.360;2023-11-21T05:23:26;8.90;99.90
42617;DHT22;28250;52.320;0.360;2023-11-21T05:25:52;8.90;99.90
42617;DHT22;28250;52.320;0.360;2023-11-21T05:28:18;8.90;99.90
42617;DHT22;28250;52.320;0.360;2023-11-21T05:30:44;8.80;99.90
42617;DHT22;28250;52.320;0.360;2023-11-21T05:33:10;8.90;99.90
42617;DHT22;28250;52.320;0.360;2023-11-21T05:35:36;8.90;99.90
42617;DHT22;28250;52.320;0.360;2023-11-21T05:38:02;8.80;99.90
42617;DHT22;28250;52.320;0.360;2023-11-21T05:40:28;8.90;99.90
42617;DHT22;28250;52.320;0.360;2023-11-21T05:42:55;8.90;99.90
42617;DHT22;28250;52.320;0.360;2023-11-21T05:45:21;8.90;99.90
42617;DHT22;28250;52.320;0.360;2023-11-21T05:47:47;8.90;99.90
42617;DHT22;28250;52.320;0.360;2023-11-21T05:50:15;8.80;99.90
42617;DHT22;28250;52.320;0.360;2023-11-21T05:52:43;8.90;99.90
42617;DHT22;28250;52.320;0.360;2023-11-21T05:55:10;8.80;99.90
42617;DHT22;28250;52.320;0.360;2023-11-21T05:57:38;8.80;99.90
42617;DHT22;28250;52.320;0.360;2023-11-21T06:00:06;8.80;99.90
42617;DHT22;28250;52.320;0.360;2023-11-21T06:02:40;8.80;99.90
42617;DHT22;28250;52.320;0.360;2023-11-21T06:05:07;8.90;99.90
42617;DHT22;28250;52.320;0.360;2023-11-21T06:07:34;8.80;99.90
42617;DHT22;28250;52.320;0.360;2023-11-21T06:10:05;8.80;99.90
42617;DHT22;28250;52.320;0.360;2023-11-21T06:12:34;8.80;99.90
42617;DHT22;28250;52.320;0.360;2023-11-21T06:15:05;8.80;99.90
42617;DHT22;28250;52.320;0.360;2023-11-21T06:17:37;8.80;99.90
42617;DHT22;28250;52.320;0.360;2023-11-21T06:20:06;8.80;99.90
42617;DHT22;28250;52.320;0.360;2023-11-21T06:22:42;8.80;99.90
42617;DHT22;28250;52.320;0.360;2023-11-21T06:25:09;8.80;99.90
42617;DHT22;28250;52.320;0.360;2023-11-21T06:27:39;8.80;99.90
42617;DHT22;28250;52.320;0.360;2023-11-21T06:30:06;8.80;99.90
42617;DHT22;28250;52.320;0.360;2023-11-21T06:32:35;8.80;99.90
42617;DHT22;28250;52.320;0.360;2023-11-21T06:35:02;8.80;99.90
42617;DHT22;28250;52.320;0.360;2023-11-21T06:37:30;8.70;99.90
42617;DHT22;28250;52.320;0.360;2023-11-21T06:39:58;8.80;99.90
42617;DHT22;28250;52.320;0.360;2023-11-21T06:42:25;8.70;99.90
42617;DHT22;28250;52.320;0.360;2023-11-21T06:44:52;8.70;99.90
42617;DHT22;28250;52.320;0.360;2023-11-21T06:47:19;8.70;99.90
42617;DHT22;28250;52.320;0.360;2023-11-21T06:49:51;8.70;99.90
42617;DHT22;28250;52.320;0.360;2023-11-21T06:52:18;8.70;99.90
42617;DHT22;28250;52.320;0.360;2023-11-21T06:54:45;8.70;99.90
42617;DHT22;28250;52.320;0.360;2023-11-21T06:57:11;8.70;99.90
42617;DHT22;28250;52.320;0.360;2023-11-21T06:59:37;8.60;99.90
42617;DHT22;28250;52.320;0.360;2023-11-21T07:02:04;8.60;99.90
42617;DHT22;28250;52.320;0.360;2023-11-21T07:04:33;8.70;99.90
42617;DHT22;28250;52.320;0.360;2023-11-21T07:07:00;8.60;99.90
42617;DHT22;28250;52.320;0.360;2023-11-21T07:09:26;8.60;99.90
42617;DHT22;28250;52.320;0.360;2023-11-21T07:11:52;8.70;99.90
42617;DHT22;28250;52.320;0.360;2023-11-21T07:14:18;8.70;99.90
42617;DHT22;28250;52.320;0.360;2023-11-21T07:16:46;8.70;99.90
42617;DHT22;28250;52.320;0.360;2023-11-21T07:19:12;8.70;99.90
42617;DHT22;28250;52.320;0.360;2023-11-21T07:21:39;8.70;99.90
42617;DHT22;28250;52.320;0.360;2023-11-21T07:24:06;8.70;99.90
42617;DHT22;28250;52.320;0.360;2023-11-21T07:26:34;8.70;99.90
42617;DHT22;28250;52.320;0.360;2023-11-21T07:29:01;8.70;99.90
42617;DHT22;28250;52.320;0.360;2023-11-21T07:31:28;8.70;99.90
42617;DHT22;28250;52.320;0.360;2023-11-21T07:33:55;8.70;99.90
42617;DHT22;28250;52.320;0.360;2023-11-21T07:36:24;8.70;99.90
42617;DHT22;28250;52.320;0.360;2023-11-21T07:38:51;8.70;99.90
42617;DHT22;28250;52.320;0.360;2023-11-21T07:41:17;8.70;99.90
42617;DHT22;28250;52.320;0.360;2023-11-21T07:43:47;8.70;99.90
42617;DHT22;28250;52.320;0.360;2023-11-21T07:46:13;8.70;99.90
42617;DHT22;28250;52.320;0.360;2023-11-21T07:48:40;8.70;99.90
42617;DHT22;28250;52.320;0.360;2023-11-21T07:51:08;8.70;99.90
42617;DHT22;28250;52.320;0.360;2023-11-21T07:53:34;8.70;99.90
42617;DHT22;28250;52.320;0.360;2023-11-21T07:56:04;8.70;99.90
42617;DHT22;28250;52.320;0.360;2023-11-21T07:58:32;8.70;99.90
42617;DHT22;28250;52.320;0.360;2023-11-21T08:01:01;8.70;99.90
42617;DHT22;28250;52.320;0.360;2023-11-21T08:03:28;8.70;99.90
42617;DHT22;28250;52.320;0.360;2023-11-21T08:05:58;8.70;99.90
42617;DHT22;28250;52.320;0.360;2023-11-21T08:08:25;8.70;99.90
42617;DHT22;28250;52.320;0.360;2023-11-21T08:10:51;8.70;99.90
42617;DHT22;28250;52.320;0.360;2023-11-21T08:13:28;8.80;99.90
42617;DHT22;28250;52.320;0.360;2023-11-21T08:15:55;8.80;99.90
42617;DHT22;28250;52.320;0.360;2023-11-21T08:18:22;8.80;99.90
42617;DHT22;28250;52.320;0.360;2023-11-21T08:20:48;8.80;99.90
42617;DHT22;28250;52.320;0.360;2023-11-21T08:23:15;8.80;99.90
42617;DHT22;28250;52.320;0.360;2023-11-21T08:25:45;8.80;99.90
42617;DHT22;28250;52.320;0.360;2023-11-21T08:28:12;8.80;99.90
42617;DHT22;28250;52.320;0.360;2023-11-21T08:30:42;8.80;99.90
42617;DHT22;28250;52.320;0.360;2023-11-21T08:33:08;8.80;99.90
42617;DHT22;28250;52.320;0.360;2023-11-21T08:35:34;8.80;99.90
42617;DHT22;28250;52.320;0.360;2023-11-21T08:38:02;8.80;99.90
42617;DHT22;28250;52.320;0.360;2023-11-21T08:40:29;8.80;99.90
42617;DHT22;28250;52.320;0.360;2023-11-21T08:42:56;8.80;99.90
42617;DHT22;28250;52.320;0.360;2023-11-21T08:45:24;8.80;99.90
42617;DHT22;28250;52.320;0.360;2023-11-21T08:47:51;8.80;99.90
42617;DHT22;28250;52.320;0.360;2023-11-21T08:50:17;8.90;99.90
42617;DHT22;28250;52.320;0.360;2023-11-21T08:52:45;8.90;99.90
42617;DHT22;28250;52.320;0.360;2023-11-21T08:55:11;8.90;99.90
42617;DHT22;28250;52.320;0.360;2023-11-21T08:57:42;8.90;99.90
42617;DHT22;28250;52.320;0.360;2023-11-21T09:00:10;8.90;99.90
42617;DHT22;28250;52.320;0.360;2023-11-21T09:02:43;9.00;99.90
42617;DHT22;28250;52.320;0.360;2023-11-21T09:05:10;9.00;99.90
42617;DHT22;28250;52.320;0.360;2023-11-21T09:07:39;9.00;99.90
42617;DHT22;28250;52.320;0.360;2023-11-21T09:10:07;9.10;99.90
42617;DHT22;28250;52.320;0.360;2023-11-21T09:12:35;9.10;99.90
42617;DHT22;28250;52.320;0.360;2023-11-21T09:15:04;9.10;99.90
42617;DHT22;28250;52.320;0.360;2023-11-21T09:17:31;9.20;99.90
42617;DHT22;28250;52.320;0.360;2023-11-21T09:19:58;9.30;99.90
42617;DHT22;28250;52.320;0.360;2023-11-21T09:22:24;9.30;99.90
42617;DHT22;28250;52.320;0.360;2023-11-21T09:24:51;9.40;99.90
42617;DHT22;28250;52.320;0.360;2023-11-21T09:27:18;9.50;99.90
42617;DHT22;28250;52.320;0.360;2023-11-21T09:29:44;9.50;99.90
42617;DHT22;28250;52.320;0.360;2023-11-21T09:32:11;9.50;99.90
42617;DHT22;28250;52.320;0.360;2023-11-21T09:34:40;9.60;99.90
42617;DHT22;28250;52.320;0.360;2023-11-21T09:37:07;9.60;99.90
42617;DHT22;28250;52.320;0.360;2023-11-21T09:39:34;9.60;99.90
42617;DHT22;28250;52.320;0.360;2023-11-21T09:42:10;9.70;99.90
42617;DHT22;28250;52.320;0.360;2023-11-21T09:44:54;9.80;99.90
42617;DHT22;28250;52.320;0.360;2023-11-21T09:47:35;9.70;99.90
42617;DHT22;28250;52.320;0.360;2023-11-21T09:50:05;9.70;99.90
42617;DHT22;28250;52.320;0.360;2023-11-21T09:52:45;9.70;99.90
42617;DHT22;28250;52.320;0.360;2023-11-21T09:55:18;9.70;99.90
42617;DHT22;28250;52.320;0.360;2023-11-21T09:57:50;9.80;99.90
42617;DHT22;28250;52.320;0.360;2023-11-21T10:00:16;9.80;99.90
42617;DHT22;28250;52.320;0.360;2023-11-21T10:02:49;9.90;99.90
42617;DHT22;28250;52.320;0.360;2023-11-21T10:05:16;10.00;99.90
42617;DHT22;28250;52.320;0.360;2023-11-21T10:07:46;10.10;99.90
42617;DHT22;28250;52.320;0.360;2023-11-21T10:10:13;10.10;99.90
42617;DHT22;28250;52.320;0.360;2023-11-21T10:12:47;10.10;99.90
42617;DHT22;28250;52.320;0.360;2023-11-21T10:15:21;10.10;99.90
42617;DHT22;28250;52.320;0.360;2023-11-21T10:17:52;10.10;99.90
42617;DHT22;28250;52.320;0.360;2023-11-21T10:20:25;10.30;99.90
42617;DHT22;28250;52.320;0.360;2023-11-21T10:22:52;10.30;99.90
42617;DHT22;28250;52.320;0.360;2023-11-21T10:25:19;10.40;99.90
42617;DHT22;28250;52.320;0.360;2023-11-21T10:27:48;10.40;99.90
42617;DHT22;28250;52.320;0.360;2023-11-21T10:30:16;10.30;99.90
42617;DHT22;28250;52.320;0.360;2023-11-21T10:32:43;10.30;99.90
42617;DHT22;28250;52.320;0.360;2023-11-21T10:35:10;10.40;99.90
42617;DHT22;28250;52.320;0.360;2023-11-21T10:37:39;10.40;99.90
42617;DHT22;28250;52.320;0.360;2023-11-21T10:40:11;10.40;99.90
42617;DHT22;28250;52.320;0.360;2023-11-21T10:42:41;10.50;99.90
42617;DHT22;28250;52.320;0.360;2023-11-21T10:45:08;10.50;99.90
42617;DHT22;28250;52.320;0.360;2023-11-21T10:47:42;10.60;99.90
42617;DHT22;28250;52.320;0.360;2023-11-21T10:50:10;10.50;99.90
42617;DHT22;28250;52.320;0.360;2023-11-21T10:52:37;10.40;99.90
42617;DHT22;28250;52.320;0.360;2023-11-21T10:55:20;10.50;99.90
42617;DHT22;28250;52.320;0.360;2023-11-21T10:57:54;10.50;99.90
42617;DHT22;28250;52.320;0.360;2023-11-21T11:00:20;10.40;99.90
42617;DHT22;28250;52.320;0.360;2023-11-21T11:02:52;10.40;99.90
42617;DHT22;28250;52.320;0.360;2023-11-21T11:05:23;10.30;99.90
42617;DHT22;28250;52.320;0.360;2023-11-21T11:08:03;10.40;99.90
42617;DHT22;28250;52.320;0.360;2023-11-21T11:10:30;10.40;99.90
42617;DHT22;28250;52.320;0.360;2023-11-21T11:12:57;10.40;99.90
42617;DHT22;28250;52.320;0.360;2023-11-21T11:15:25;10.40;99.90
42617;DHT22;28250;52.320;0.360;2023-11-21T11:17:53;10.40;99.90
42617;DHT22;28250;52.320;0.360;2023-11-21T11:20:33;10.40;99.90
42617;DHT22;28250;52.320;0.360;2023-11-21T11:26:36;10.40;99.90
42617;DHT22;28250;52.320;0.360;2023-11-21T11:29:33;10.40;99.90
42617;DHT22;28250;52.320;0.360;2023-11-21T11:32:16;10.50;99.90
42617;DHT22;28250;52.320;0.360;2023-11-21T11:37:20;10.50;99.90
42617;DHT22;28250;52.320;0.360;2023-11-21T11:39:46;10.50;99.90
42617;DHT22;28250;52.320;0.360;2023-11-21T11:42:17;10.50;99.90
42617;DHT22;28250;52.320;0.360;2023-11-21T11:47:15;10.50;99.90
42617;DHT22;28250;52.320;0.360;2023-11-21T11:52:49;10.30;99.90
42617;DHT22;28250;52.320;0.360;2023-11-21T11:55:18;10.30;99.90
42617;DHT22;28250;52.320;0.360;2023-11-21T11:57:50;10.10;99.90
42617;DHT22;28250;52.320;0.360;2023-11-21T12:02:52;10.20;99.90
42617;DHT22;28250;52.320;0.360;2023-11-21T12:05:20;10.10;99.90
42617;DHT22;28250;52.320;0.360;2023-11-21T12:07:52;10.20;99.90
42617;DHT22;28250;52.320;0.360;2023-11-21T12:10:24;10.20;99.90
42617;DHT22;28250;52.320;0.360;2023-11-21T12:12:53;10.20;99.90
42617;DHT22;28250;52.320;0.360;2023-11-21T12:15:22;10.10;99.90
42617;DHT22;28250;52.320;0.360;2023-11-21T12:17:50;10.10;99.90
42617;DHT22;28250;52.320;0.360;2023-11-21T12:20:19;10.10;99.90
42617;DHT22;28250;52.320;0.360;2023-11-21T12:22:49;10.10;99.90
42617;DHT22;28250;52.320;0.360;2023-11-21T12:25:22;10.10;99.90
42617;DHT22;28250;52.320;0.360;2023-11-21T12:27:57;10.20;99.90
42617;DHT22;28250;52.320;0.360;2023-11-21T12:30:31;10.20;99.90
42617;DHT22;28250;52.320;0.360;2023-11-21T12:33:02;10.10;99.90
42617;DHT22;28250;52.320;0.360;2023-11-21T12:35:33;10.10;99.90
42617;DHT22;28250;52.320;0.360;2023-11-21T12:38:01;10.10;99.90
42617;DHT22;28250;52.320;0.360;2023-11-21T12:40:28;9.90;99.90
42617;DHT22;28250;52.320;0.360;2023-11-21T12:42:57;9.80;99.90
42617;DHT22;28250;52.320;0.360;2023-11-21T12:45:29;9.80;99.90
42617;DHT22;28250;52.320;0.360;2023-11-21T12:48:03;9.80;99.90
42617;DHT22;28250;52.320;0.360;2023-11-21T12:50:34;9.80;99.90
42617;DHT22;28250;52.320;0.360;2023-11-21T12:53:05;9.80;99.90
42617;DHT22;28250;52.320;0.360;2023-11-21T12:55:35;9.80;99.90
42617;DHT22;28250;52.320;0.360;2023-11-21T12:58:06;9.80;99.90
42617;DHT22;28250;52.320;0.360;2023-11-21T13:00:40;9.90;99.90
42617;DHT22;28250;52.320;0.360;2023-11-21T13:03:12;9.90;99.90
42617;DHT22;28250;52.320;0.360;2023-11-21T13:05:43;10.00;99.90
42617;DHT22;28250;52.320;0.360;2023-11-21T13:08:12;10.00;99.90
42617;DHT22;28250;52.320;0.360;2023-11-21T13:10:39;10.00;99.90
42617;DHT22;28250;52.320;0.360;2023-11-21T13:13:09;10.10;99.90
42617;DHT22;28250;52.320;0.360;2023-11-21T13:15:40;10.10;99.90
42617;DHT22;28250;52.320;0.360;2023-11-21T13:18:09;10.10;99.90
42617;DHT22;28250;52.320;0.360;2023-11-21T13:20:37;10.00;99.90
42617;DHT22;28250;52.320;0.360;2023-11-21T13:23:08;10.00;99.90
42617;DHT22;28250;52.320;0.360;2023-11-21T13:25:34;9.90;99.90
42617;DHT22;28250;52.320;0.360;2023-11-21T13:28:02;9.90;99.90
42617;DHT22;28250;52.320;0.360;2023-11-21T13:30:29;9.90;99.90
42617;DHT22;28250;52.320;0.360;2023-11-21T13:33:03;9.90;99.90
42617;DHT22;28250;52.320;0.360;2023-11-21T13:35:36;9.90;99.90
42617;DHT22;28250;52.320;0.360;2023-11-21T13:38:14;9.90;99.90
42617;DHT22;28250;52.320;0.360;2023-11-21T13:40:51;10.00;99.90
42617;DHT22;28250;52.320;0.360;2023-11-21T13:43:22;10.00;99.90
42617;DHT22;28250;52.320;0.360;2023-11-21T13:45:52;10.00;99.90
42617;DHT22;28250;52.320;0.360;2023-11-21T13:48:26;10.00;99.90
42617;DHT22;28250;52.320;0.360;2023-11-21T13:50:58;10.00;99.90
42617;DHT22;28250;52.320;0.360;2023-11-21T13:53:27;9.90;99.90
42617;DHT22;28250;52.320;0.360;2023-11-21T13:55:56;9.90;99.90
42617;DHT22;28250;52.320;0.360;2023-11-21T13:58:25;9.80;99.90
42617;DHT22;28250;52.320;0.360;2023-11-21T14:01:11;9.70;99.90
42617;DHT22;28250;52.320;0.360;2023-11-21T14:04:02;9.70;99.90
42617;DHT22;28250;52.320;0.360;2023-11-21T14:06:51;9.70;99.90
42617;DHT22;28250;52.320;0.360;2023-11-21T14:09:22;9.80;99.90
42617;DHT22;28250;52.320;0.360;2023-11-21T14:11:50;9.70;99.90
42617;DHT22;28250;52.320;0.360;2023-11-21T14:14:22;9.70;99.90
42617;DHT22;28250;52.320;0.360;2023-11-21T14:16:51;9.70;99.90
42617;DHT22;28250;52.320;0.360;2023-11-21T14:19:18;9.70;99.90
42617;DHT22;28250;52.320;0.360;2023-11-21T14:21:45;9.70;99.90
42617;DHT22;28250;52.320;0.360;2023-11-21T14:24:12;9.70;99.90
42617;DHT22;28250;52.320;0.360;2023-11-21T14:26:42;9.60;99.90
42617;DHT22;28250;52.320;0.360;2023-11-21T14:29:15;9.60;99.90
42617;DHT22;28250;52.320;0.360;2023-11-21T14:31:46;9.50;99.90
42617;DHT22;28250;52.320;0.360;2023-11-21T14:34:12;9.50;99.90
42617;DHT22;28250;52.320;0.360;2023-11-21T14:36:40;9.40;99.90
42617;DHT22;28250;52.320;0.360;2023-11-21T14:39:07;9.40;99.90
42617;DHT22;28250;52.320;0.360;2023-11-21T14:41:36;9.50;99.90
42617;DHT22;28250;52.320;0.360;2023-11-21T14:44:04;9.60;99.90
42617;DHT22;28250;52.320;0.360;2023-11-21T14:46:33;9.60;99.90
42617;DHT22;28250;52.320;0.360;2023-11-21T14:49:00;9.60;99.90
42617;DHT22;28250;52.320;0.360;2023-11-21T14:51:50;9.60;99.90
42617;DHT22;28250;52.320;0.360;2023-11-21T14:54:32;9.60;99.90
42617;DHT22;28250;52.320;0.360;2023-11-21T14:57:12;9.70;99.90
42617;DHT22;28250;52.320;0.360;2023-11-21T14:59:46;9.70;99.90
42617;DHT22;28250;52.320;0.360;2023-11-21T15:02:15;9.80;99.90
42617;DHT22;28250;52.320;0.360;2023-11-21T15:04:46;9.80;99.90
42617;DHT22;28250;52.320;0.360;2023-11-21T15:07:13;9.70;99.90
42617;DHT22;28250;52.320;0.360;2023-11-21T15:09:39;9.60;99.90
42617;DHT22;28250;52.320;0.360;2023-11-21T15:12:10;9.60;99.90
42617;DHT22;28250;52.320;0.360;2023-11-21T15:14:51;9.50;99.90
42617;DHT22;28250;52.320;0.360;2023-11-21T15:17:23;9.40;99.90
42617;DHT22;28250;52.320;0.360;2023-11-21T15:19:53;9.40;99.90
42617;DHT22;28250;52.320;0.360;2023-11-21T15:22:19;9.40;99.90
42617;DHT22;28250;52.320;0.360;2023-11-21T15:24:46;9.40;99.90
42617;DHT22;28250;52.320;0.360;2023-11-21T15:27:13;9.40;99.90
42617;DHT22;28250;52.320;0.360;2023-11-21T15:29:40;9.40;99.90
42617;DHT22;28250;52.320;0.360;2023-11-21T15:32:07;9.30;99.90
42617;DHT22;28250;52.320;0.360;2023-11-21T15:34:35;9.30;99.90
42617;DHT22;28250;52.320;0.360;2023-11-21T15:37:01;9.30;99.90
42617;DHT22;28250;52.320;0.360;2023-11-21T15:39:28;9.20;99.90
42617;DHT22;28250;52.320;0.360;2023-11-21T15:41:59;9.20;99.90
42617;DHT22;28250;52.320;0.360;2023-11-21T15:44:26;9.20;99.90
42617;DHT22;28250;52.320;0.360;2023-11-21T15:46:53;9.20;99.90
42617;DHT22;28250;52.320;0.360;2023-11-21T15:49:19;9.10;99.90
42617;DHT22;28250;52.320;0.360;2023-11-21T15:51:51;9.10;99.90
42617;DHT22;28250;52.320;0.360;2023-11-21T15:54:22;9.10;99.90
42617;DHT22;28250;52.320;0.360;2023-11-21T15:56:48;9.10;99.90
42617;DHT22;28250;52.320;0.360;2023-11-21T15:59:15;9.10;99.90
42617;DHT22;28250;52.320;0.360;2023-11-21T16:01:42;9.10;99.90
42617;DHT22;28250;52.320;0.360;2023-11-21T16:04:11;9.10;99.90
42617;DHT22;28250;52.320;0.360;2023-11-21T16:06:41;9.00;99.90